createdAt,value
2022-11-03T00:01:45.328Z,1.23
2022-11-03T00:06:51.922Z,1.45
2022-11-03T00:11:55.583Z,1.20
2022-11-03T00:16:59.286Z,1.10
2022-11-03T00:22:04.452Z,1.40
2022-11-03T00:27:08.123Z,1.20
2022-11-03T00:32:11.791Z,1.33
2022-11-03T00:37:16.853Z,1.05
2022-11-03T00:42:20.572Z,1.15
2022-11-03T00:47:24.410Z,1.15
2022-11-03T00:52:29.609Z,1.52
2022-11-03T00:57:33.299Z,1.20
2022-11-03T01:02:36.988Z,1.10
2022-11-03T01:07:42.069Z,1.23
2022-11-03T01:12:45.772Z,0.90
2022-11-03T01:17:49.371Z,1.08
2022-11-03T01:22:54.430Z,1.35
2022-11-03T01:27:58.106Z,1.08
2022-11-03T01:33:01.733Z,1.33
2022-11-03T01:38:06.734Z,1.17
2022-11-03T01:43:17.492Z,1.08
2022-11-03T01:48:23.581Z,1.15
2022-11-03T01:53:30.060Z,1.00
2022-11-03T01:58:36.978Z,1.30
2022-11-03T02:03:45.865Z,1.13
2022-11-03T02:08:53.739Z,1.58
2022-11-03T02:13:57.366Z,0.77
2022-11-03T02:19:03.329Z,1.10
2022-11-03T02:24:15.453Z,1.08
2022-11-03T02:29:20.624Z,0.98
2022-11-03T02:34:31.289Z,1.35
2022-11-03T02:39:39.729Z,1.30
2022-11-03T02:44:47.741Z,1.27
2022-11-03T02:55:08.470Z,0.93
2022-11-03T03:00:17.535Z,1.10
2022-11-03T03:05:24.002Z,1.75
2022-11-03T03:10:32.509Z,1.13
2022-11-03T03:15:46.329Z,0.98
2022-11-03T03:20:56.344Z,0.88
2022-11-03T03:26:04.502Z,1.08
2022-11-03T03:31:14.600Z,1.00
2022-11-03T03:36:20.962Z,1.27
2022-11-03T03:41:27.419Z,0.77
2022-11-03T03:46:36.533Z,1.90
2022-11-03T03:51:40.632Z,1.40
2022-11-03T03:56:49.985Z,1.00
2022-11-03T04:01:55.172Z,1.15
2022-11-03T04:07:12.822Z,1.17
2022-11-03T04:12:33.687Z,1.10
2022-11-03T04:17:58.609Z,1.95
2022-11-03T04:23:02.229Z,1.15
2022-11-03T04:28:11.186Z,1.10
2022-11-03T04:33:18.798Z,1.00
2022-11-03T04:38:25.107Z,1.08
2022-11-03T04:43:34.501Z,1.40
2022-11-03T04:48:39.651Z,1.10
2022-11-03T04:53:49.430Z,0.85
2022-11-03T04:58:54.213Z,1.20
2022-11-03T05:03:59.278Z,0.95
2022-11-03T05:09:06.859Z,1.02
2022-11-03T05:14:16.876Z,1.02
2022-11-03T05:19:25.459Z,1.02
2022-11-03T05:24:30.781Z,0.98
2022-11-03T05:29:37.879Z,1.20
2022-11-03T05:39:49.585Z,1.00
2022-11-03T05:44:56.087Z,1.02
2022-11-03T05:50:14.853Z,1.33
2022-11-03T05:55:27.107Z,1.00
2022-11-03T06:00:36.793Z,1.10
2022-11-03T06:05:42.722Z,1.02
2022-11-03T06:10:50.336Z,1.48
2022-11-03T06:15:58.190Z,1.40
2022-11-03T06:21:14.836Z,0.88
2022-11-03T06:26:21.755Z,1.33
2022-11-03T06:31:28.582Z,1.33
2022-11-03T06:36:37.956Z,1.42
2022-11-03T06:41:41.718Z,1.35
2022-11-03T06:46:45.380Z,0.95
2022-11-03T06:51:50.426Z,1.35
2022-11-03T06:56:54.114Z,0.90
2022-11-03T07:01:57.912Z,1.00
2022-11-03T07:07:05.490Z,1.40
2022-11-03T07:12:17.611Z,1.20
2022-11-03T07:17:24.177Z,1.30
2022-11-03T07:22:29.438Z,1.35
2022-11-03T07:27:36.723Z,1.00
2022-11-03T07:32:40.730Z,1.50
2022-11-03T07:37:47.153Z,1.00
2022-11-03T07:42:51.942Z,1.00
2022-11-03T07:47:57.425Z,1.15
2022-11-03T07:53:09.906Z,1.52
2022-11-03T07:58:22.033Z,1.00
2022-11-03T08:03:37.658Z,0.98
2022-11-03T08:08:42.776Z,0.82
2022-11-03T08:13:46.536Z,1.25
2022-11-03T08:18:50.221Z,1.42
2022-11-03T08:23:55.263Z,1.33
2022-11-03T08:28:59.007Z,1.20
2022-11-03T08:34:02.718Z,0.93
2022-11-03T08:39:07.795Z,0.98
2022-11-03T08:44:11.521Z,1.30
2022-11-03T08:49:15.251Z,1.20
2022-11-03T08:54:20.445Z,1.13
2022-11-03T08:59:24.149Z,1.42
2022-11-03T09:04:30.837Z,1.42
2022-11-03T09:14:59.988Z,0.98
2022-11-03T09:20:03.821Z,1.30
2022-11-03T09:25:09.980Z,0.85
2022-11-03T09:30:14.598Z,0.70
2022-11-03T09:35:18.536Z,1.20
2022-11-03T09:40:25.329Z,1.30
2022-11-03T09:45:29.131Z,0.95
2022-11-03T09:50:33.539Z,1.08
2022-11-03T09:55:38.747Z,0.80
2022-11-03T10:00:42.665Z,0.90
2022-11-03T10:05:47.137Z,0.85
2022-11-03T10:10:52.534Z,0.85
2022-11-03T10:15:56.832Z,0.80
2022-11-03T10:21:04.959Z,1.02
2022-11-03T10:26:16.493Z,1.10
2022-11-03T10:31:21.845Z,1.00
2022-11-03T10:36:27.134Z,1.13
2022-11-03T10:41:33.069Z,0.90
2022-11-03T10:46:49.616Z,0.90
2022-11-03T10:51:56.919Z,0.77
2022-11-03T10:57:02.859Z,0.88
2022-11-03T11:02:16.017Z,0.80
2022-11-03T11:07:24.918Z,1.23
2022-11-03T11:12:30.120Z,0.93
2022-11-03T11:17:51.920Z,0.93
2022-11-03T11:22:55.581Z,1.10
2022-11-03T11:28:11.844Z,0.98
2022-11-03T11:33:23.463Z,1.10
2022-11-03T11:38:56.405Z,0.88
2022-11-03T11:44:54.705Z,0.82
2022-11-03T11:50:34.438Z,0.85
2022-11-03T11:55:43.390Z,0.95
2022-11-03T12:00:58.686Z,0.88
2022-11-03T12:06:02.392Z,1.13
2022-11-03T12:11:07.789Z,0.90
2022-11-03T12:16:28.278Z,1.25
2022-11-03T12:21:48.919Z,0.80
2022-11-03T12:26:52.568Z,0.93
2022-11-03T12:31:57.565Z,1.27
2022-11-03T12:37:01.184Z,0.85
2022-11-03T12:42:05.622Z,0.80
2022-11-03T12:47:10.631Z,0.85
2022-11-03T12:52:14.258Z,0.63
2022-11-03T12:57:18.095Z,1.00
2022-11-03T13:02:23.252Z,0.95
2022-11-03T13:07:31.923Z,0.68
2022-11-03T13:12:41.397Z,0.60
2022-11-03T13:23:10.685Z,0.50
2022-11-03T13:28:14.562Z,0.60
2022-11-03T13:33:19.631Z,0.60
2022-11-03T13:38:23.326Z,1.17
2022-11-03T13:43:27.149Z,1.00
2022-11-03T13:59:27.483Z,0.88
2022-11-03T14:09:44.222Z,0.95
2022-11-03T14:14:47.865Z,0.88
2022-11-03T14:19:56.523Z,0.93
2022-11-03T14:25:03.186Z,0.65
2022-11-03T14:30:08.168Z,0.52
2022-11-03T14:35:13.462Z,0.80
2022-11-03T14:40:33.007Z,0.80
2022-11-03T14:45:39.777Z,0.88
2022-11-03T14:50:47.551Z,0.88
2022-11-03T14:55:51.258Z,0.70
2022-11-03T15:00:55.031Z,0.82
2022-11-03T15:06:00.225Z,0.80
2022-11-03T15:11:05.269Z,0.90
2022-11-03T15:16:09.203Z,1.10
2022-11-03T15:21:23.190Z,0.70
2022-11-03T15:26:27.408Z,1.00
2022-11-03T15:31:31.050Z,1.00
2022-11-03T15:36:36.464Z,0.80
2022-11-03T15:41:40.120Z,1.27
2022-11-03T15:46:46.906Z,0.98
2022-11-03T15:51:51.945Z,1.30
2022-11-03T15:56:55.685Z,1.35
2022-11-03T16:02:13.776Z,1.10
2022-11-03T16:07:24.673Z,1.75
2022-11-03T16:12:28.388Z,1.50
2022-11-03T16:17:32.122Z,1.10
2022-11-03T16:22:37.398Z,1.33
2022-11-03T16:27:41.061Z,1.60
2022-11-03T16:32:44.852Z,1.55
2022-11-03T16:37:50.098Z,1.30
2022-11-03T16:42:53.795Z,1.20
2022-11-03T16:47:57.504Z,1.65
2022-11-03T16:53:03.125Z,1.60
2022-11-03T16:58:07.007Z,1.70
2022-11-03T17:03:10.977Z,1.70
2022-11-03T17:08:38.902Z,1.58
2022-11-03T17:13:46.200Z,1.60
2022-11-03T17:18:50.197Z,1.55
2022-11-03T17:23:55.801Z,1.55
2022-11-03T17:28:59.578Z,1.83
2022-11-03T17:34:06.557Z,1.92
2022-11-03T17:39:21.976Z,1.85
2022-11-03T17:44:26.352Z,1.95
2022-11-03T17:49:30.166Z,2.17
2022-11-03T17:54:35.221Z,2.58
2022-11-03T17:59:39.113Z,2.40
2022-11-03T18:04:42.803Z,2.15
2022-11-03T18:09:48.477Z,2.22
2022-11-03T18:14:52.349Z,2.03
2022-11-03T18:19:56.602Z,2.17
2022-11-03T18:25:11.155Z,2.30
2022-11-03T18:30:17.613Z,2.47
2022-11-03T18:35:24.088Z,2.67
2022-11-03T18:40:32.714Z,3.13
2022-11-03T18:45:36.711Z,1.70
2022-11-03T18:50:44.272Z,2.08
2022-11-03T18:55:50.042Z,2.15
2022-11-03T19:00:54.453Z,2.45
2022-11-03T19:05:59.951Z,2.80
2022-11-03T19:11:06.108Z,2.38
2022-11-03T19:16:14.729Z,2.57
2022-11-03T19:21:29.780Z,2.80
2022-11-03T19:26:40.695Z,3.10
2022-11-03T19:31:48.785Z,3.22
2022-11-03T19:36:53.219Z,3.20
2022-11-03T19:42:19.818Z,3.08
2022-11-03T19:47:29.957Z,2.83
2022-11-03T19:52:42.463Z,3.20
2022-11-03T19:57:47.767Z,3.50
2022-11-03T20:02:51.729Z,3.20
2022-11-03T20:07:56.115Z,3.22
2022-11-03T20:13:02.823Z,3.60
2022-11-03T20:18:07.175Z,4.18
2022-11-03T20:23:19.480Z,3.65
2022-11-03T20:28:27.587Z,3.97
2022-11-03T20:33:35.012Z,4.40
2022-11-03T20:38:38.758Z,4.40
2022-11-03T20:43:45.744Z,4.22
2022-11-03T20:48:49.667Z,4.72
2022-11-03T20:53:55.713Z,4.10
2022-11-03T20:59:04.030Z,3.15
2022-11-03T21:04:09.667Z,2.45
2022-11-03T21:09:14.263Z,2.13
2022-11-03T21:14:23.460Z,1.67
2022-11-03T21:19:46.956Z,1.70
2022-11-03T21:24:50.826Z,2.25
2022-11-03T21:29:59.418Z,2.20
2022-11-03T21:35:04.448Z,3.63
2022-11-03T21:40:10.276Z,3.42
2022-11-03T21:45:15.825Z,3.70
2022-11-03T21:50:19.435Z,2.33
2022-11-03T21:55:23.245Z,1.58
2022-11-03T22:00:28.892Z,1.40
2022-11-03T22:05:32.667Z,2.13
2022-11-03T22:10:41.443Z,2.22
2022-11-03T22:16:03.978Z,2.83
2022-11-03T22:21:26.616Z,3.63
2022-11-03T22:26:47.560Z,3.97
2022-11-03T22:32:38.297Z,4.40
2022-11-03T22:37:45.266Z,4.28
2022-11-03T22:43:07.354Z,4.38
2022-11-03T22:48:14.313Z,5.75
2022-11-03T22:53:35.465Z,4.70
2022-11-03T22:58:39.203Z,5.10
2022-11-03T23:03:46.509Z,4.78
2022-11-03T23:08:51.824Z,4.07
2022-11-03T23:13:58.677Z,3.63
2022-11-03T23:19:27.693Z,1.60
2022-11-03T23:24:48.845Z,0.57
2022-11-03T23:29:52.518Z,0.90
2022-11-03T23:34:57.870Z,0.30
2022-11-03T23:40:02.188Z,0.30
2022-11-03T23:45:24.009Z,0.20
2022-11-03T23:50:28.998Z,1.80
2022-11-03T23:55:54.658Z,3.00
